Time;durP1;ratioP1;P1;durP2;ratioP2;P2;SDS_P1;SDS_P2;PMS_P1;PMS_P2;Temp;Humidity;BMP_temperature;BMP_pressure;BME280_temperature;BME280_humidity;BME280_pressure;Samples;Min_cycle;Max_cycle;Signal;HPM_P1;HPM_P2
2022/11/21 00:00:16;;;;;;;1999.90;999.90;;;9.20;99.90;;;;;;5070801;28;20029;-78
2022/11/21 00:02:42;;;;;;;1999.90;999.90;;;9.20;99.90;;;;;;5071799;28;20536;-75
2022/11/21 00:05:07;;;;;;;1999.90;999.90;;;9.20;99.90;;;;;;5072366;28;20066;-75
2022/11/21 00:07:33;;;;;;;1999.90;999.90;;;9.20;99.90;;;;;;5072124;28;20052;-78
2022/11/21 00:09:59;;;;;;;1999.90;999.90;;;9.20;99.90;;;;;;5071725;28;20031;-78
2022/11/21 00:12:25;;;;;;;1999.90;999.90;;;9.20;99.90;;;;;;5071885;28;20025;-74
2022/11/21 00:14:50;;;;;;;1999.90;999.90;;;9.20;99.90;;;;;;5073043;28;20028;-74
2022/11/21 00:17:16;;;;;;;1999.90;999.90;;;9.20;99.90;;;;;;5076203;28;20035;-75
2022/11/21 00:19:41;;;;;;;1999.90;999.90;;;9.20;99.90;;;;;;5076012;28;20518;-78
2022/11/21 00:22:07;;;;;;;1999.90;999.90;;;9.20;99.90;;;;;;5075871;28;20020;-78
2022/11/21 00:24:33;;;;;;;1999.90;999.90;;;9.20;99.90;;;;;;5074207;28;20033;-75
2022/11/21 00:26:58;;;;;;;1999.90;999.90;;;9.20;99.90;;;;;;5072385;28;20017;-75
2022/11/21 00:29:24;;;;;;;1999.90;999.90;;;9.20;99.90;;;;;;5055967;28;20022;-75
2022/11/21 00:31:49;;;;;;;1999.90;999.90;;;9.20;99.90;;;;;;5055763;28;20029;-75
2022/11/21 00:34:15;;;;;;;1999.90;999.90;;;9.20;99.90;;;;;;5055700;28;20033;-78
2022/11/21 00:36:41;;;;;;;1999.90;999.90;;;9.20;99.90;;;;;;5054432;28;20075;-75
2022/11/21 00:39:07;;;;;;;1999.90;999.90;;;9.20;99.90;;;;;;5054153;28;20040;-75
2022/11/21 00:41:32;;;;;;;1999.90;999.90;;;9.20;99.90;;;;;;5055589;28;20107;-75
2022/11/21 00:43:58;;;;;;;1999.90;999.90;;;9.20;99.90;;;;;;5061865;28;20028;-74
2022/11/21 00:46:24;;;;;;;1999.90;999.90;;;9.30;99.90;;;;;;5095349;28;20073;-75
2022/11/21 00:48:49;;;;;;;1999.90;999.90;;;9.30;99.90;;;;;;5095760;28;20035;-78
2022/11/21 00:51:15;;;;;;;1999.90;999.90;;;9.30;99.90;;;;;;5096190;28;20016;-74
2022/11/21 00:53:41;;;;;;;1999.90;999.90;;;9.30;99.90;;;;;;5078691;28;20073;-75
2022/11/21 00:56:06;;;;;;;1999.90;999.90;;;9.30;99.90;;;;;;5075338;28;20484;-74
2022/11/21 00:58:32;;;;;;;1999.90;999.90;;;9.40;99.90;;;;;;5075116;28;20035;-78
2022/11/21 01:01:09;;;;;;;1999.90;999.90;;;9.30;99.90;;;;;;5075427;28;20032;-78
2022/11/21 01:03:35;;;;;;;1999.90;999.90;;;9.40;99.90;;;;;;5073733;28;20059;-74
2022/11/21 01:06:09;;;;;;;1999.90;999.90;;;9.40;99.90;;;;;;5075151;28;20021;-76
2022/11/21 01:08:38;;;;;;;1999.90;999.90;;;9.40;99.90;;;;;;5074751;28;20037;-74
2022/11/21 01:11:15;;;;;;;1999.90;999.90;;;9.40;99.90;;;;;;5073910;28;20460;-75
2022/11/21 01:13:40;;;;;;;1999.90;999.90;;;9.40;99.90;;;;;;5074949;28;20016;-75
2022/11/21 01:16:12;;;;;;;1999.90;999.90;;;9.40;99.90;;;;;;5073804;28;20021;-75
2022/11/21 01:18:38;;;;;;;1999.90;999.90;;;9.40;99.90;;;;;;5073117;28;20028;-75
2022/11/21 01:21:14;;;;;;;1999.90;999.90;;;9.30;99.90;;;;;;5073645;28;20487;-75
2022/11/21 01:23:40;;;;;;;1999.90;999.90;;;9.40;99.90;;;;;;5074381;28;20028;-75
2022/11/21 01:26:09;;;;;;;1999.90;999.90;;;9.30;99.90;;;;;;5073213;28;20025;-78
2022/11/21 01:28:35;;;;;;;1999.90;999.90;;;9.30;99.90;;;;;;5074714;28;20478;-75
2022/11/21 01:31:12;;;;;;;1999.90;999.90;;;9.30;99.90;;;;;;5075082;28;20025;-74
2022/11/21 01:33:38;;;;;;;1999.90;999.90;;;9.30;99.90;;;;;;5074628;28;20479;-75
2022/11/21 01:36:33;;;;;;;1999.90;999.90;;;9.30;99.90;;;;;;5074558;28;20024;-75
2022/11/21 01:39:02;;;;;;;1999.90;999.90;;;9.30;99.90;;;;;;5057153;28;20041;-74
2022/11/21 01:41:32;;;;;;;1999.90;999.90;;;9.40;99.90;;;;;;5074559;28;20020;-78
2022/11/21 01:43:59;;;;;;;1999.90;999.90;;;9.30;99.90;;;;;;5077684;28;20070;-74
2022/11/21 01:46:25;;;;;;;1999.90;999.90;;;9.40;99.90;;;;;;5094737;28;20020;-74
2022/11/21 01:49:18;;;;;;;1999.90;999.90;;;9.40;99.90;;;;;;5093408;28;20043;-75
2022/11/21 01:51:56;;;;;;;1999.90;999.90;;;9.40;99.90;;;;;;5094500;28;20483;-78
2022/11/21 01:54:39;;;;;;;1999.90;999.90;;;9.30;99.90;;;;;;5053964;28;20082;-75
2022/11/21 01:57:11;;;;;;;1999.90;999.90;;;9.40;99.90;;;;;;5054560;28;20052;-75
2022/11/21 01:59:45;;;;;;;1999.90;999.90;;;9.40;99.90;;;;;;5054236;28;20400;-75
2022/11/21 02:02:13;;;;;;;1999.90;999.90;;;9.50;99.90;;;;;;5064392;28;20387;-74
2022/11/21 02:04:42;;;;;;;1999.90;999.90;;;9.50;99.90;;;;;;5073950;28;20036;-74
2022/11/21 02:07:08;;;;;;;1999.90;999.90;;;9.50;99.90;;;;;;5074365;28;20510;-75
2022/11/21 02:09:38;;;;;;;1999.90;999.90;;;9.50;99.90;;;;;;5073813;28;20118;-74
2022/11/21 02:12:10;;;;;;;1999.90;999.90;;;9.50;99.90;;;;;;5073734;28;20059;-75
2022/11/21 02:14:37;;;;;;;1999.90;999.90;;;9.60;99.90;;;;;;5072679;28;20021;-75
2022/11/21 02:17:06;;;;;;;1999.90;999.90;;;9.60;99.90;;;;;;5072687;28;20044;-78
2022/11/21 02:19:48;;;;;;;1999.90;999.90;;;9.50;99.90;;;;;;5073830;28;20399;-78
2022/11/21 02:22:22;;;;;;;1999.90;999.90;;;9.50;99.90;;;;;;5073506;28;20063;-75
2022/11/21 02:25:01;;;;;;;1999.90;999.90;;;9.50;99.90;;;;;;5071911;28;20036;-78
2022/11/21 02:27:28;;;;;;;1999.90;999.90;;;9.40;99.90;;;;;;5073042;28;20016;-74
2022/11/21 02:29:54;;;;;;;1999.90;999.90;;;9.40;99.90;;;;;;5073451;28;20479;-78
2022/11/21 02:32:30;;;;;;;1999.90;999.90;;;9.30;99.90;;;;;;5073479;28;20100;-78
2022/11/21 02:34:55;;;;;;;1999.90;999.90;;;9.30;99.90;;;;;;5073485;28;20027;-78
2022/11/21 02:37:21;;;;;;;1999.90;999.90;;;9.30;99.90;;;;;;5072691;28;20036;-75
2022/11/21 02:39:48;;;;;;;1999.90;999.90;;;9.30;99.90;;;;;;5072812;28;20052;-75
2022/11/21 02:42:13;;;;;;;1999.90;999.90;;;9.30;99.90;;;;;;5073260;28;20024;-75
2022/11/21 02:44:55;;;;;;;1999.90;999.90;;;9.30;99.90;;;;;;5082283;28;20463;-78
2022/11/21 02:47:22;;;;;;;1999.90;999.90;;;9.30;99.90;;;;;;5093588;28;20028;-74
2022/11/21 02:50:07;;;;;;;1999.90;999.90;;;9.30;99.90;;;;;;5092060;28;20166;-74
2022/11/21 02:52:32;;;;;;;1999.90;999.90;;;9.30;99.90;;;;;;5080121;28;20025;-75
2022/11/21 02:54:58;;;;;;;1999.90;999.90;;;9.30;99.90;;;;;;5053119;28;20078;-75
2022/11/21 02:57:23;;;;;;;1999.90;999.90;;;9.30;99.90;;;;;;5053183;28;20060;-78
2022/11/21 02:59:49;;;;;;;1999.90;999.90;;;9.30;99.90;;;;;;5053027;28;20056;-78
2022/11/21 03:02:14;;;;;;;1999.90;999.90;;;9.40;99.90;;;;;;5063494;28;20044;-74
2022/11/21 03:04:40;;;;;;;1999.90;999.90;;;9.30;99.90;;;;;;5072844;28;20561;-74
2022/11/21 03:07:06;;;;;;;1999.90;999.90;;;9.40;99.90;;;;;;5073131;28;20434;-75
2022/11/21 03:09:32;;;;;;;1999.90;999.90;;;9.40;99.90;;;;;;5072589;28;20021;-78
2022/11/21 03:11:57;;;;;;;1999.90;999.90;;;9.40;99.90;;;;;;5072654;28;20024;-78
2022/11/21 03:14:23;;;;;;;1999.90;999.90;;;9.40;99.90;;;;;;5072689;28;20027;-74
2022/11/21 03:16:48;;;;;;;1999.90;999.90;;;9.40;99.90;;;;;;5072343;28;20114;-74
2022/11/21 03:19:14;;;;;;;1999.90;999.90;;;9.40;99.90;;;;;;5072963;28;20025;-74
2022/11/21 03:21:40;;;;;;;1999.90;999.90;;;9.40;99.90;;;;;;5072006;28;20033;-78
2022/11/21 03:24:06;;;;;;;1999.90;999.90;;;9.40;99.90;;;;;;5072494;28;20104;-78
2022/11/21 03:26:32;;;;;;;1999.90;999.90;;;9.40;99.90;;;;;;5072413;28;20032;-75
2022/11/21 03:28:57;;;;;;;1999.90;999.90;;;9.50;99.90;;;;;;5071872;28;20491;-75
2022/11/21 03:31:23;;;;;;;1999.90;999.90;;;9.50;99.90;;;;;;5072656;28;20450;-74
2022/11/21 03:33:49;;;;;;;1999.90;999.90;;;9.50;99.90;;;;;;5072361;28;20384;-74
2022/11/21 03:36:14;;;;;;;1999.90;999.90;;;9.50;99.90;;;;;;5072461;28;20017;-74
2022/11/21 03:38:40;;;;;;;1999.90;999.90;;;9.50;99.90;;;;;;5072228;28;20409;-78
2022/11/21 03:41:28;;;;;;;1999.90;999.90;;;9.50;99.90;;;;;;5072281;28;20051;-74
2022/11/21 03:43:51;;;;;;;1999.90;999.90;;;9.50;99.90;;;;;;5074289;28;20441;-74
2022/11/21 03:46:17;;;;;;;1999.90;999.90;;;9.60;99.90;;;;;;5092403;28;20023;-74
2022/11/21 03:48:43;;;;;;;1999.90;999.90;;;9.60;99.90;;;;;;5092199;28;20035;-78
2022/11/21 03:51:08;;;;;;;1999.90;999.90;;;9.60;99.90;;;;;;5092772;28;20109;-78
2022/11/21 03:53:34;;;;;;;1999.90;999.90;;;9.70;99.90;;;;;;5071771;28;20061;-74
2022/11/21 03:55:59;;;;;;;1999.90;999.90;;;9.70;99.90;;;;;;5067501;28;20166;-74
2022/11/21 03:58:25;;;;;;;1999.90;999.90;;;9.80;99.90;;;;;;5052149;28;20032;-78
2022/11/21 04:00:51;;;;;;;1999.90;999.90;;;9.80;99.90;;;;;;5052187;28;20032;-78
2022/11/21 04:03:16;;;;;;;1999.90;999.90;;;9.80;99.90;;;;;;5070518;28;20508;-78
2022/11/21 04:05:43;;;;;;;1999.90;999.90;;;9.80;99.90;;;;;;5072029;28;20031;-74
2022/11/21 04:08:09;;;;;;;1999.90;999.90;;;9.90;99.90;;;;;;5071799;28;20035;-74
2022/11/21 04:10:34;;;;;;;1999.90;999.90;;;9.80;99.90;;;;;;5071959;28;20021;-78
2022/11/21 04:13:00;;;;;;;1999.90;999.90;;;9.90;99.90;;;;;;5072139;28;20407;-74
2022/11/21 04:15:26;;;;;;;1999.90;999.90;;;9.90;99.90;;;;;;5071611;28;20070;-78
2022/11/21 04:17:51;;;;;;;1999.90;999.90;;;9.90;99.90;;;;;;5071225;28;20102;-78
2022/11/21 04:20:17;;;;;;;1999.90;999.90;;;9.90;99.90;;;;;;5071906;28;20071;-74
2022/11/21 04:22:43;;;;;;;1999.90;999.90;;;9.90;99.90;;;;;;5071557;28;20033;-74
2022/11/21 04:25:08;;;;;;;1999.90;999.90;;;9.90;99.90;;;;;;5070349;28;20028;-74
2022/11/21 04:27:34;;;;;;;1999.90;999.90;;;9.90;99.90;;;;;;5071095;28;20028;-78
2022/11/21 04:30:00;;;;;;;1999.90;999.90;;;9.90;99.90;;;;;;5071994;28;20052;-78
2022/11/21 04:32:25;;;;;;;1999.90;999.90;;;9.90;99.90;;;;;;5071841;28;20043;-74
2022/11/21 04:34:51;;;;;;;1999.90;999.90;;;9.90;99.90;;;;;;5070496;28;20021;-74
2022/11/21 04:37:17;;;;;;;1999.90;999.90;;;9.90;99.90;;;;;;5072133;28;20047;-74
2022/11/21 04:39:42;;;;;;;1999.90;999.90;;;9.80;99.90;;;;;;5071372;28;20518;-78
2022/11/21 04:42:08;;;;;;;1999.90;999.90;;;9.80;99.90;;;;;;5071781;28;20111;-76
2022/11/21 04:44:33;;;;;;;1999.90;999.90;;;9.80;99.90;;;;;;5079695;28;20024;-74
2022/11/21 04:46:59;;;;;;;1999.90;999.90;;;9.80;99.90;;;;;;5091953;28;20024;-74
2022/11/21 04:49:25;;;;;;;1999.90;999.90;;;9.80;99.90;;;;;;5091981;28;20017;-73
2022/11/21 04:51:50;;;;;;;1999.90;999.90;;;9.80;99.90;;;;;;5090185;28;20028;-78
2022/11/21 04:54:16;;;;;;;1999.90;999.90;;;9.80;99.90;;;;;;5051386;28;20147;-77
2022/11/21 04:56:42;;;;;;;1999.90;999.90;;;9.70;99.90;;;;;;5050257;28;20021;-77
2022/11/21 04:59:10;;;;;;;1999.90;999.90;;;9.70;99.90;;;;;;5051525;28;20029;-73
2022/11/21 05:01:37;;;;;;;1999.90;999.90;;;9.70;99.90;;;;;;5059583;28;20124;-73
2022/11/21 05:04:02;;;;;;;1999.90;999.90;;;9.70;99.90;;;;;;5074937;28;20508;-72
2022/11/21 05:06:28;;;;;;;1999.90;999.90;;;9.70;99.90;;;;;;5075250;28;20106;-76
2022/11/21 05:08:54;;;;;;;1999.90;999.90;;;9.70;99.90;;;;;;5074758;28;20024;-76
2022/11/21 05:14:04;;;;;;;1999.90;999.90;;;9.70;99.90;;;;;;5074822;28;20094;-73
2022/11/21 05:16:31;;;;;;;1999.90;999.90;;;9.70;99.90;;;;;;5074929;28;20475;-73
2022/11/21 05:18:57;;;;;;;1999.90;999.90;;;9.60;99.90;;;;;;5075523;28;20448;-79
2022/11/21 05:21:23;;;;;;;1999.90;999.90;;;9.60;99.90;;;;;;5075381;28;20071;-74
2022/11/21 05:23:48;;;;;;;1999.90;999.90;;;9.60;99.90;;;;;;5074394;28;20034;-74
2022/11/21 05:26:14;;;;;;;1999.90;999.90;;;9.60;99.90;;;;;;5074595;28;20075;-73
2022/11/21 05:28:39;;;;;;;1999.90;999.90;;;9.60;99.90;;;;;;5073708;28;20116;-74
2022/11/21 05:31:05;;;;;;;1999.90;999.90;;;9.60;99.90;;;;;;5075071;28;20078;-73
2022/11/21 05:33:31;;;;;;;1999.90;999.90;;;9.60;99.90;;;;;;5075003;28;20032;-79
2022/11/21 05:35:56;;;;;;;1999.90;999.90;;;9.60;99.90;;;;;;5075213;28;20020;-78
2022/11/21 05:38:22;;;;;;;1999.90;999.90;;;9.60;99.90;;;;;;5074414;28;20446;-74
2022/11/21 05:40:48;;;;;;;1999.90;999.90;;;9.60;99.90;;;;;;5074409;28;20032;-74
2022/11/21 05:45:57;;;;;;;1999.90;999.90;;;9.60;99.90;;;;;;5094601;28;20074;-75
2022/11/21 05:48:23;;;;;;;1999.90;999.90;;;9.70;99.90;;;;;;5094588;28;20036;-74
2022/11/21 05:50:49;;;;;;;1999.90;999.90;;;9.70;99.90;;;;;;5093351;28;20047;-73
2022/11/21 05:53:15;;;;;;;1999.90;999.90;;;9.60;99.90;;;;;;5069047;28;20040;-74
2022/11/21 05:55:41;;;;;;;1999.90;999.90;;;9.60;99.90;;;;;;5060715;28;20554;-76
2022/11/21 05:58:07;;;;;;;1999.90;999.90;;;9.60;99.90;;;;;;5073652;28;20107;-77
2022/11/21 06:00:33;;;;;;;1999.90;999.90;;;9.60;99.90;;;;;;5074176;28;20089;-74
2022/11/21 06:05:43;;;;;;;1999.90;999.90;;;9.70;99.90;;;;;;5074052;28;20073;-75
2022/11/21 06:08:08;;;;;;;1999.90;999.90;;;9.70;99.90;;;;;;5073708;28;20033;-74
2022/11/21 06:10:34;;;;;;;1999.90;999.90;;;9.70;99.90;;;;;;5073685;28;20032;-76
2022/11/21 06:13:00;;;;;;;1999.90;999.90;;;9.70;99.90;;;;;;5073733;28;20028;-74
2022/11/21 06:15:27;;;;;;;1999.90;999.90;;;9.70;99.90;;;;;;5071247;28;20024;-75
2022/11/21 06:17:52;;;;;;;1999.90;999.90;;;9.70;99.90;;;;;;5074149;28;20085;-75
2022/11/21 06:20:18;;;;;;;1999.90;999.90;;;9.70;99.90;;;;;;5073798;28;20103;-76
2022/11/21 06:22:44;;;;;;;1999.90;999.90;;;9.70;99.90;;;;;;5072469;28;20025;-74
2022/11/21 06:25:09;;;;;;;1999.90;999.90;;;9.70;99.90;;;;;;5073888;28;20223;-76
2022/11/21 06:27:35;;;;;;;1999.90;999.90;;;9.70;99.90;;;;;;5073725;28;20028;-74
2022/11/21 06:30:00;;;;;;;1999.90;999.90;;;9.70;99.90;;;;;;5072712;28;20063;-77
2022/11/21 06:32:26;;;;;;;1999.90;999.90;;;9.70;99.90;;;;;;5073613;28;20024;-76
2022/11/21 06:34:52;;;;;;;1999.90;999.90;;;9.70;99.90;;;;;;5073188;28;20032;-76
2022/11/21 06:37:17;;;;;;;1999.90;999.90;;;9.70;99.90;;;;;;5073727;28;20109;-76
2022/11/21 06:39:43;;;;;;;1999.90;999.90;;;9.70;99.90;;;;;;5068653;28;20862;-75
2022/11/21 06:42:08;;;;;;;1999.90;999.90;;;9.70;99.90;;;;;;5073171;28;20115;-77
2022/11/21 06:44:34;;;;;;;1999.90;999.90;;;9.70;99.90;;;;;;5074134;28;20031;-79
2022/11/21 06:46:59;;;;;;;1999.90;999.90;;;9.70;99.90;;;;;;5073422;28;20508;-76
2022/11/21 06:49:25;;;;;;;1999.90;999.90;;;9.70;99.90;;;;;;5072173;28;20029;-75
2022/11/21 06:51:51;;;;;;;1999.90;999.90;;;9.70;99.90;;;;;;5072146;28;20086;-75
2022/11/21 06:54:17;;;;;;;1999.90;999.90;;;9.70;99.90;;;;;;5058826;28;20107;-79
2022/11/21 06:56:43;;;;;;;1999.90;999.90;;;9.70;99.90;;;;;;5105639;27;20029;-79
2022/11/21 06:59:08;;;;;;;1999.90;999.90;;;9.70;99.90;;;;;;5072584;28;20044;-78
2022/11/21 07:01:34;;;;;;;1999.90;999.90;;;9.70;99.90;;;;;;5082598;28;20021;-78
2022/11/21 07:03:59;;;;;;;1999.90;999.90;;;9.70;99.90;;;;;;5072580;28;20135;-76
2022/11/21 07:06:26;;;;;;;1999.90;999.90;;;9.70;99.90;;;;;;5081824;28;20024;-76
2022/11/21 07:08:54;;;;;;;1999.90;999.90;;;9.80;99.90;;;;;;5073260;28;20111;-78
2022/11/21 07:11:25;;;;;;;1999.90;999.90;;;9.80;99.90;;;;;;5075906;28;20036;-78
2022/11/21 07:13:50;;;;;;;1999.90;999.90;;;9.80;99.90;;;;;;5075089;28;20428;-78
2022/11/21 07:16:16;;;;;;;1999.90;999.90;;;9.80;99.90;;;;;;5074380;28;20024;-76
2022/11/21 07:18:41;;;;;;;1999.90;999.90;;;9.80;99.90;;;;;;5072791;28;20099;-75
2022/11/21 07:21:08;;;;;;;1999.90;999.90;;;9.90;99.90;;;;;;5063518;28;20028;-75
2022/11/21 07:23:34;;;;;;;1999.90;999.90;;;9.80;99.90;;;;;;5066415;28;20082;-77
2022/11/21 07:26:05;;;;;;;1999.90;999.90;;;9.90;99.90;;;;;;5070783;28;20043;-75
2022/11/21 07:28:31;;;;;;;1999.90;999.90;;;9.90;99.90;;;;;;5067713;28;20063;-75
2022/11/21 07:30:58;;;;;;;1999.90;999.90;;;9.90;99.90;;;;;;5069335;28;20067;-75
2022/11/21 07:33:24;;;;;;;1999.90;999.90;;;9.90;99.90;;;;;;5089084;28;20024;-75
2022/11/21 07:35:50;;;;;;;1999.90;999.90;;;9.90;99.90;;;;;;5071499;28;20103;-77
2022/11/21 07:38:16;;;;;;;1999.90;999.90;;;10.00;99.90;;;;;;5071327;28;21001;-76
2022/11/21 07:40:41;;;;;;;1999.90;999.90;;;9.90;99.90;;;;;;5080407;28;20411;-74
2022/11/21 07:43:09;;;;;;;1999.90;999.90;;;10.00;99.90;;;;;;5070333;28;20376;-75
2022/11/21 07:45:35;;;;;;;1999.90;999.90;;;10.00;99.90;;;;;;5077986;28;20043;-74
2022/11/21 07:48:03;;;;;;;1999.90;999.90;;;10.00;99.90;;;;;;5060635;28;20040;-77
2022/11/21 07:50:29;;;;;;;1999.90;999.90;;;10.00;99.90;;;;;;5068897;28;20035;-75
2022/11/21 07:52:59;;;;;;;1999.90;999.90;;;10.10;99.90;;;;;;5061131;28;20037;-77
2022/11/21 07:55:27;;;;;;;1999.90;999.90;;;10.00;99.90;;;;;;5072234;28;20106;-75
2022/11/21 07:58:07;;;;;;;1999.90;999.90;;;10.00;99.90;;;;;;5070166;28;20492;-75
2022/11/21 08:00:35;;;;;;;1999.90;999.90;;;10.10;99.90;;;;;;5068248;28;20035;-76
2022/11/21 08:03:02;;;;;;;1999.90;999.90;;;10.10;99.90;;;;;;5063165;28;20075;-76
2022/11/21 08:05:28;;;;;;;1999.90;999.90;;;10.10;99.90;;;;;;5070450;28;20027;-77
2022/11/21 08:07:54;;;;;;;1999.90;999.90;;;10.10;99.90;;;;;;5068947;28;20560;-75
2022/11/21 08:10:19;;;;;;;1999.90;999.90;;;10.10;99.90;;;;;;5070253;28;20506;-74
2022/11/21 08:12:45;;;;;;;1999.90;999.90;;;10.10;99.90;;;;;;5060055;28;20047;-75
2022/11/21 08:15:11;;;;;;;1999.90;999.90;;;10.10;99.90;;;;;;5066601;28;20089;-75
2022/11/21 08:17:37;;;;;;;1999.90;999.90;;;10.10;99.90;;;;;;5068473;28;20037;-73
2022/11/21 08:20:05;;;;;;;1999.90;999.90;;;10.20;99.90;;;;;;5060861;28;20115;-76
2022/11/21 08:22:30;;;;;;;1999.90;999.90;;;10.20;99.90;;;;;;5063404;28;20465;-74
2022/11/21 08:24:56;;;;;;;1999.90;999.90;;;10.20;99.90;;;;;;5062369;28;20111;-74
2022/11/21 08:27:23;;;;;;;1999.90;999.90;;;10.20;99.90;;;;;;5067971;28;20036;-74
2022/11/21 08:29:49;;;;;;;1999.90;999.90;;;10.20;99.90;;;;;;5061443;28;20013;-73
2022/11/21 08:32:14;;;;;;;1999.90;999.90;;;10.20;99.90;;;;;;5056909;28;20083;-73
2022/11/21 08:34:40;;;;;;;1999.90;999.90;;;10.10;99.90;;;;;;5066157;28;20024;-76
2022/11/21 08:37:06;;;;;;;1999.90;999.90;;;10.20;99.90;;;;;;5063192;28;20025;-75
2022/11/21 08:39:32;;;;;;;1999.90;999.90;;;10.20;99.90;;;;;;5065964;28;20020;-73
2022/11/21 08:42:04;;;;;;;1999.90;999.90;;;10.10;99.90;;;;;;5070662;28;20079;-73
2022/11/21 08:44:33;;;;;;;1999.90;999.90;;;10.10;99.90;;;;;;5075670;28;20399;-75
2022/11/21 08:47:00;;;;;;;1999.90;999.90;;;10.20;99.90;;;;;;5066812;28;20098;-83
2022/11/21 08:49:25;;;;;;;1999.90;999.90;;;10.20;99.90;;;;;;5065763;28;20021;-84
2022/11/21 08:51:51;;;;;;;1999.90;999.90;;;10.20;99.90;;;;;;5075036;28;20086;-77
2022/11/21 08:54:21;;;;;;;1999.90;999.90;;;10.20;99.90;;;;;;5064631;28;20029;-77
2022/11/21 08:56:47;;;;;;;1999.90;999.90;;;10.20;99.90;;;;;;5070423;28;20039;-79
2022/11/21 08:59:13;;;;;;;1999.90;999.90;;;10.20;99.90;;;;;;5073266;28;20099;-80
2022/11/21 09:01:39;;;;;;;1999.90;999.90;;;10.20;99.90;;;;;;5069509;28;20108;-82
2022/11/21 09:04:05;;;;;;;1999.90;999.90;;;10.20;99.90;;;;;;5073789;28;20054;-78
2022/11/21 09:06:30;;;;;;;1999.90;999.90;;;10.30;99.90;;;;;;5070128;28;20127;-74
2022/11/21 09:08:56;;;;;;;1999.90;999.90;;;10.30;99.90;;;;;;5078830;28;20083;-74
2022/11/21 09:11:23;;;;;;;1999.90;999.90;;;10.30;99.90;;;;;;5067019;28;20024;-82
2022/11/21 09:19:29;;;;;;;1999.90;999.90;;;10.40;99.90;;;;;;5062327;28;20055;-75
2022/11/21 09:21:54;;;;;;;1999.90;999.90;;;10.50;99.90;;;;;;5073328;28;20851;-79
2022/11/21 09:24:20;;;;;;;1999.90;999.90;;;10.50;99.90;;;;;;5092558;28;20512;-83
2022/11/21 09:26:46;;;;;;;1999.90;999.90;;;10.60;99.90;;;;;;5072626;28;20040;-81
2022/11/21 09:29:13;;;;;;;1999.90;999.90;;;10.60;99.90;;;;;;5065331;28;20028;-84
2022/11/21 09:31:40;;;;;;;1999.90;999.90;;;10.70;99.90;;;;;;5064675;28;20028;-79
2022/11/21 09:34:06;;;;;;;1999.90;999.90;;;10.80;99.90;;;;;;5062647;28;20096;-82
2022/11/21 09:36:32;;;;;;;1999.90;999.90;;;10.90;99.90;;;;;;5083721;28;20427;-84
2022/11/21 09:38:58;;;;;;;1999.90;999.90;;;11.00;99.90;;;;;;5063655;28;20085;-83
2022/11/21 09:41:50;;;;;;;1999.90;999.90;;;11.30;99.90;;;;;;5080156;28;20048;-84
2022/11/21 09:44:44;;;;;;;1999.90;999.90;;;11.30;99.90;;;;;;5075640;28;20024;-78
2022/11/21 09:47:25;;;;;;;1999.90;999.90;;;11.60;99.90;;;;;;5072438;28;20036;-76
2022/11/21 09:49:56;;;;;;;1999.90;999.90;;;11.70;99.90;;;;;;5070235;28;20040;-74
2022/11/21 09:52:34;;;;;;;1999.90;999.90;;;11.80;99.90;;;;;;5072371;28;20054;-84
2022/11/21 09:55:04;;;;;;;1999.90;999.90;;;12.20;99.90;;;;;;5061262;28;20078;-76
2022/11/21 09:57:31;;;;;;;1999.90;999.90;;;12.40;99.90;;;;;;5070401;28;20037;-79
2022/11/21 09:59:57;;;;;;;1999.90;999.90;;;12.80;99.90;;;;;;5070142;28;20436;-74
2022/11/21 10:02:24;;;;;;;1999.90;999.90;;;13.30;99.90;;;;;;5059552;28;20183;-75
2022/11/21 10:04:51;;;;;;;1999.90;999.90;;;13.50;99.90;;;;;;5063431;28;20031;-75
2022/11/21 10:07:27;;;;;;;1999.90;999.90;;;13.60;99.90;;;;;;5073430;28;20461;-81
2022/11/21 10:10:16;;;;;;;1999.90;999.90;;;13.80;99.90;;;;;;5073327;28;20031;-75
2022/11/21 10:12:57;;;;;;;1999.90;999.90;;;14.10;99.90;;;;;;5071504;28;20035;-75
2022/11/21 10:15:28;;;;;;;1999.90;999.90;;;14.20;99.90;;;;;;5065631;28;20029;-80
2022/11/21 10:18:27;;;;;;;1999.90;999.90;;;14.30;99.90;;;;;;5061915;28;20115;-79
2022/11/21 10:21:05;;;;;;;1999.90;999.90;;;14.40;99.90;;;;;;5070291;28;20403;-80
2022/11/21 10:23:55;;;;;;;1999.90;999.90;;;14.60;99.90;;;;;;5083005;28;20120;-80
2022/11/21 10:26:34;;;;;;;1999.90;999.90;;;14.60;99.90;;;;;;5075217;28;20035;-79
2022/11/21 10:29:15;;;;;;;1999.90;999.90;;;14.60;99.90;;;;;;5068426;28;20106;-75
2022/11/21 10:31:42;;;;;;;1999.90;999.90;;;14.60;99.90;;;;;;5074783;28;20028;-78
2022/11/21 10:34:19;;;;;;;1999.90;999.90;;;14.70;99.90;;;;;;5070947;28;20047;-78
2022/11/21 10:36:51;;;;;;;1999.90;999.90;;;14.80;99.90;;;;;;5066929;28;20020;-75
2022/11/21 10:39:24;;;;;;;1999.90;999.90;;;14.80;99.90;;;;;;5057373;28;20132;-75
2022/11/21 10:42:08;;;;;;;;;;;14.90;99.90;;;;;;5066653;28;20454;-74
2022/11/21 10:47:27;;;;;;;1999.90;999.90;;;15.10;99.90;;;;;;5080517;28;20101;-76
2022/11/21 10:50:13;;;;;;;1999.90;999.90;;;14.90;99.90;;;;;;5062677;28;20029;-78
2022/11/21 10:52:49;;;;;;;1999.90;999.90;;;14.00;99.90;;;;;;5050729;28;20051;-75
2022/11/21 10:55:16;;;;;;;1999.90;999.90;;;13.70;99.90;;;;;;5068845;28;20017;-78
2022/11/21 10:57:45;;;;;;;1999.90;999.90;;;13.80;99.90;;;;;;5071715;28;20042;-76
2022/11/21 11:00:11;;;;;;;1999.90;999.90;;;13.90;99.90;;;;;;5067310;28;20033;-77
2022/11/21 11:03:03;;;;;;;1999.90;999.90;;;13.90;99.90;;;;;;5075990;28;20062;-75
2022/11/21 11:05:40;;;;;;;1999.90;999.90;;;14.10;99.90;;;;;;5109583;27;20044;-75
2022/11/21 11:08:07;;;;;;;1999.90;999.90;;;14.20;99.90;;;;;;5078279;28;20028;-74
2022/11/21 11:10:35;;;;;;;1999.90;999.90;;;14.30;99.90;;;;;;5073910;28;20077;-78
2022/11/21 11:15:58;;;;;;;1999.90;999.90;;;14.50;99.90;;;;;;5067540;28;20107;-77
2022/11/21 11:18:25;;;;;;;1999.90;999.90;;;14.60;99.90;;;;;;5072510;28;20067;-78
2022/11/21 11:20:51;;;;;;;1999.90;999.90;;;14.60;99.90;;;;;;5057738;28;20025;-77
2022/11/21 11:23:19;;;;;;;1999.90;999.90;;;14.70;99.90;;;;;;5060833;28;20034;-78
2022/11/21 11:25:59;;;;;;;1999.90;999.90;;;14.90;99.90;;;;;;5068833;28;20032;-78
2022/11/21 11:28:32;;;;;;;1999.90;999.90;;;15.00;99.90;;;;;;5058724;28;20057;-74
2022/11/21 11:30:59;;;;;;;1999.90;999.90;;;14.90;99.90;;;;;;5062112;28;20051;-75
2022/11/21 11:33:36;;;;;;;1999.90;999.90;;;14.80;99.90;;;;;;5058739;28;20025;-73
2022/11/21 11:36:36;;;;;;;1999.90;999.90;;;14.70;99.90;;;;;;5069619;28;20029;-77
2022/11/21 11:39:24;;;;;;;1999.90;999.90;;;14.70;99.90;;;;;;5068233;28;20024;-76
2022/11/21 11:47:58;;;;;;;1999.90;999.90;;;14.50;99.90;;;;;;5063612;28;20050;-72
2022/11/21 11:50:52;;;;;;;1999.90;999.90;;;14.40;99.90;;;;;;5058900;28;20039;-78
2022/11/21 11:53:32;;;;;;;1999.90;999.90;;;14.50;99.90;;;;;;5061450;28;20093;-73
2022/11/21 11:56:32;;;;;;;1999.90;999.90;;;14.80;99.90;;;;;;5062917;28;20032;-76
2022/11/21 11:59:21;;;;;;;1999.90;999.90;;;14.70;99.90;;;;;;5061250;28;20447;-73
2022/11/21 12:02:01;;;;;;;1999.90;999.90;;;14.40;99.90;;;;;;5059531;28;20108;-77
2022/11/21 12:04:52;;;;;;;1999.90;999.90;;;14.50;99.90;;;;;;5066235;28;20089;-78
2022/11/21 12:07:43;;;;;;;1999.90;999.90;;;14.70;99.90;;;;;;5054522;28;20175;-72
2022/11/21 12:12:05;;;;;;;1999.90;999.90;;;14.80;99.90;;;;;;5048655;28;20496;-74
2022/11/21 12:13:28;;;;;;;1999.90;999.90;;;15.00;99.90;;;;;;5071198;28;20028;-74
2022/11/21 12:15:57;;;;;;;1999.90;999.90;;;15.10;99.90;;;;;;5103869;27;20116;-75
2022/11/21 12:18:46;;;;;;;1999.90;999.90;;;15.10;99.90;;;;;;5073079;28;20111;-76
2022/11/21 12:21:17;;;;;;;1999.90;999.90;;;15.10;99.90;;;;;;5067390;28;20472;-74
2022/11/21 12:23:57;;;;;;;1999.90;999.90;;;14.90;99.90;;;;;;5067671;28;20051;-74
2022/11/21 12:26:43;;;;;;;1999.90;999.90;;;15.20;99.90;;;;;;5067926;28;20120;-77
2022/11/21 12:29:27;;;;;;;1999.90;999.90;;;15.40;99.90;;;;;;5072039;28;20032;-76
2022/11/21 12:32:24;;;;;;;1999.90;999.90;;;15.50;99.90;;;;;;5072834;28;20037;-78
2022/11/21 12:34:50;;;;;;;1999.90;999.90;;;15.30;99.90;;;;;;5051224;28;20105;-75
2022/11/21 12:37:37;;;;;;;1999.90;999.90;;;15.30;99.90;;;;;;5070510;28;20033;-77
2022/11/21 12:40:21;;;;;;;1999.90;999.90;;;15.10;99.90;;;;;;5060771;28;20025;-76
2022/11/21 12:42:52;;;;;;;1999.90;999.90;;;15.00;99.90;;;;;;5063342;28;20032;-76